Time;durP1;ratioP1;P1;durP2;ratioP2;P2;SDS_P1;SDS_P2;PMS_P1;PMS_P2;Temp;Humidity;BMP_temperature;BMP_pressure;BME280_temperature;BME280_humidity;BME280_pressure;Samples;Min_cycle;Max_cycle;Signal;HPM_P1;HPM_P2
2023/09/08 00:01:55;;;;;;;8.63;5.85;;;13.30;99.90;;;;;;5114069;28;20027;-62
2023/09/08 00:04:21;;;;;;;8.32;6.32;;;13.30;99.90;;;;;;5114178;28;20027;-62
2023/09/08 00:06:47;;;;;;;9.02;6.25;;;13.20;99.90;;;;;;5114159;28;20024;-62
2023/09/08 00:09:12;;;;;;;9.52;5.82;;;13.30;99.90;;;;;;5095577;28;20081;-62
2023/09/08 00:11:38;;;;;;;8.77;6.47;;;13.30;99.90;;;;;;5096181;28;20035;-62
2023/09/08 00:14:04;;;;;;;7.97;5.82;;;13.30;99.90;;;;;;5114285;28;20414;-62
2023/09/08 00:16:30;;;;;;;6.72;5.72;;;13.20;99.90;;;;;;5114115;28;20445;-62
2023/09/08 00:18:58;;;;;;;7.65;6.22;;;13.20;99.90;;;;;;5095897;28;20058;-62
2023/09/08 00:21:24;;;;;;;9.60;5.32;;;13.30;99.90;;;;;;5113603;28;20465;-62
2023/09/08 00:23:50;;;;;;;9.50;6.70;;;13.30;99.90;;;;;;5113984;28;20469;-62
2023/09/08 00:26:16;;;;;;;7.28;5.57;;;13.20;99.90;;;;;;5095942;28;20365;-62
2023/09/08 00:28:42;;;;;;;7.05;5.55;;;13.30;99.90;;;;;;5113855;28;20020;-62
2023/09/08 00:31:07;;;;;;;8.15;5.68;;;13.20;99.90;;;;;;5113673;28;20023;-62
2023/09/08 00:33:33;;;;;;;10.75;5.97;;;13.30;99.90;;;;;;5114101;28;20019;-62
2023/09/08 00:35:59;;;;;;;8.35;6.20;;;13.20;99.90;;;;;;5113770;28;20022;-62
2023/09/08 00:38:24;;;;;;;9.85;6.20;;;13.20;99.90;;;;;;5113902;28;20076;-62
2023/09/08 00:40:50;;;;;;;7.20;5.43;;;13.10;99.90;;;;;;5095510;28;20368;-62
2023/09/08 00:43:17;;;;;;;9.73;5.78;;;13.10;99.90;;;;;;5113881;28;20023;-62
2023/09/08 00:45:44;;;;;;;8.00;6.15;;;13.10;99.90;;;;;;5116806;28;20022;-62
2023/09/08 00:48:10;;;;;;;10.05;5.82;;;13.10;99.90;;;;;;5117965;28;20027;-62
2023/09/08 00:50:36;;;;;;;7.82;5.85;;;13.10;99.90;;;;;;5117711;28;20027;-62
2023/09/08 00:53:06;;;;;;;8.15;5.70;;;13.10;99.90;;;;;;5099365;28;20449;-62
2023/09/08 00:55:33;;;;;;;9.02;6.25;;;13.10;99.90;;;;;;5099367;28;20127;-62
2023/09/08 00:57:59;;;;;;;7.80;6.18;;;13.10;99.90;;;;;;5117498;28;20023;-62
2023/09/08 01:00:25;;;;;;;8.10;5.40;;;13.10;99.90;;;;;;5099374;28;20066;-62
2023/09/08 01:02:51;;;;;;;8.77;5.80;;;13.10;99.90;;;;;;5099110;28;20037;-62
2023/09/08 01:05:17;;;;;;;8.85;6.15;;;13.10;99.90;;;;;;5117411;28;20027;-62
2023/09/08 01:07:44;;;;;;;10.15;6.18;;;13.10;99.90;;;;;;5117122;28;20448;-62
2023/09/08 01:10:10;;;;;;;8.93;5.97;;;13.00;99.90;;;;;;5117015;28;20034;-62
2023/09/08 01:12:36;;;;;;;11.27;5.80;;;13.00;99.90;;;;;;5099195;28;20383;-62
2023/09/08 01:15:04;;;;;;;12.85;6.32;;;13.00;99.90;;;;;;5117606;28;20072;-62
2023/09/08 01:17:30;;;;;;;8.77;6.15;;;13.00;99.90;;;;;;5117139;28;20023;-62
2023/09/08 01:19:58;;;;;;;7.95;6.28;;;12.90;99.90;;;;;;5098753;28;20115;-62
2023/09/08 01:22:54;;;;;;;8.80;5.82;;;13.00;99.90;;;;;;5117188;28;20023;-62
2023/09/08 01:25:29;;;;;;;13.00;6.30;;;12.90;99.90;;;;;;5098722;28;20055;-62
2023/09/08 01:28:00;;;;;;;7.50;6.07;;;12.90;99.90;;;;;;5098396;28;20065;-62
2023/09/08 01:30:28;;;;;;;9.68;6.10;;;12.90;99.90;;;;;;5117248;28;20039;-62
2023/09/08 01:32:55;;;;;;;10.52;6.88;;;12.90;99.90;;;;;;5116879;28;20078;-62
2023/09/08 01:35:21;;;;;;;7.07;5.50;;;12.90;99.90;;;;;;5098472;28;20476;-62
2023/09/08 01:37:48;;;;;;;8.95;5.80;;;12.80;99.90;;;;;;5116806;28;20019;-62
2023/09/08 01:40:14;;;;;;;14.25;6.80;;;12.80;99.90;;;;;;5116604;28;20356;-62
2023/09/08 01:42:41;;;;;;;8.32;5.65;;;12.80;99.90;;;;;;5098757;28;20055;-62
2023/09/08 01:45:07;;;;;;;13.07;5.93;;;12.80;99.90;;;;;;5116647;28;20070;-62
2023/09/08 01:47:33;;;;;;;11.13;5.80;;;12.80;99.90;;;;;;5098697;28;20054;-62
2023/09/08 01:49:59;;;;;;;7.95;5.72;;;12.70;99.90;;;;;;5116405;28;20023;-62
2023/09/08 01:52:25;;;;;;;9.77;6.65;;;12.70;99.90;;;;;;5116317;28;20071;-62
2023/09/08 01:54:51;;;;;;;7.95;5.97;;;12.70;99.90;;;;;;5116417;28;20570;-62
2023/09/08 01:57:17;;;;;;;10.10;6.05;;;12.70;99.90;;;;;;5115405;28;20054;-62
2023/09/08 01:59:44;;;;;;;9.32;5.68;;;12.60;99.90;;;;;;5116344;28;20020;-62
2023/09/08 02:02:10;;;;;;;12.00;5.88;;;12.60;99.90;;;;;;5116192;28;20031;-62
2023/09/08 02:04:36;;;;;;;12.45;6.80;;;12.60;99.90;;;;;;5116502;28;20019;-62
2023/09/08 02:07:03;;;;;;;9.50;6.32;;;12.50;99.90;;;;;;5116193;28;20055;-62
2023/09/08 02:09:36;;;;;;;7.55;5.97;;;12.40;99.90;;;;;;5116146;28;20183;-62
2023/09/08 02:12:03;;;;;;;9.93;5.80;;;12.30;99.90;;;;;;5098049;28;20031;-62
2023/09/08 02:14:28;;;;;;;8.80;6.65;;;12.20;99.90;;;;;;5116036;28;20027;-62
2023/09/08 02:16:55;;;;;;;9.10;6.43;;;12.20;99.90;;;;;;5115767;28;20103;-62
2023/09/08 02:19:20;;;;;;;10.73;6.03;;;12.30;99.90;;;;;;5115948;28;20024;-62
2023/09/08 02:21:46;;;;;;;12.70;6.45;;;12.40;99.90;;;;;;5098260;28;20024;-62
2023/09/08 02:24:12;;;;;;;10.85;6.60;;;12.30;99.90;;;;;;5115904;28;20410;-62
2023/09/08 02:26:41;;;;;;;12.15;6.43;;;12.40;99.90;;;;;;5116077;28;20027;-62
2023/09/08 02:29:07;;;;;;;16.70;6.50;;;12.30;99.90;;;;;;5115518;28;20058;-62
2023/09/08 02:31:33;;;;;;;6.72;5.75;;;12.30;99.90;;;;;;5115691;28;20027;-62
2023/09/08 02:33:59;;;;;;;9.82;6.63;;;12.30;99.90;;;;;;5115653;28;20047;-62
2023/09/08 02:36:27;;;;;;;7.95;6.43;;;12.30;99.90;;;;;;5115312;28;20392;-62
2023/09/08 02:38:54;;;;;;;7.32;6.03;;;12.30;99.90;;;;;;5115849;28;20015;-62
2023/09/08 02:41:20;;;;;;;9.85;6.10;;;12.20;99.90;;;;;;5097363;28;20054;-62
2023/09/08 02:43:45;;;;;;;11.40;6.10;;;12.20;99.90;;;;;;5116020;28;20460;-62
2023/09/08 02:46:11;;;;;;;10.27;5.95;;;12.20;99.90;;;;;;5115788;28;20027;-62
2023/09/08 02:48:37;;;;;;;10.32;6.68;;;12.20;99.90;;;;;;5118220;28;20095;-62
2023/09/08 02:51:03;;;;;;;10.50;6.60;;;12.10;99.90;;;;;;5099521;28;20384;-62
2023/09/08 02:53:29;;;;;;;11.43;6.88;;;12.10;99.90;;;;;;5118356;28;20030;-62
2023/09/08 02:55:55;;;;;;;11.27;7.13;;;12.10;99.90;;;;;;5115220;28;20012;-62
2023/09/08 02:58:21;;;;;;;9.80;7.13;;;12.10;99.90;;;;;;5114980;28;20449;-62
2023/09/08 03:00:46;;;;;;;12.65;6.93;;;12.00;99.90;;;;;;5096553;28;20073;-62
2023/09/08 03:03:12;;;;;;;16.65;7.70;;;12.00;99.90;;;;;;5115456;28;20069;-61
2023/09/08 03:05:38;;;;;;;9.85;6.72;;;12.00;99.90;;;;;;5096922;28;20512;-62
2023/09/08 03:08:05;;;;;;;12.30;6.47;;;12.00;99.90;;;;;;5096695;28;20020;-62
2023/09/08 03:10:33;;;;;;;9.80;6.28;;;12.00;99.90;;;;;;5114900;28;20038;-62
2023/09/08 03:13:03;;;;;;;13.27;7.05;;;12.00;99.90;;;;;;5115290;28;20398;-62
2023/09/08 03:15:28;;;;;;;;;;;11.90;99.90;;;;;;5115812;28;20445;-62
2023/09/08 03:17:58;;;;;;;12.00;6.55;;;11.90;99.90;;;;;;5114926;28;19914;-62
2023/09/08 03:20:25;;;;;;;10.18;7.35;;;11.90;99.90;;;;;;5114869;28;20509;-62
2023/09/08 03:22:51;;;;;;;12.05;7.50;;;11.90;99.90;;;;;;5096743;28;20020;-61
2023/09/08 03:25:17;;;;;;;8.80;6.30;;;11.90;99.90;;;;;;5114833;28;20023;-62
2023/09/08 03:27:43;;;;;;;9.48;6.45;;;12.00;99.90;;;;;;5115001;28;20027;-62
2023/09/08 03:30:09;;;;;;;8.55;7.05;;;11.90;99.90;;;;;;5114429;28;20384;-62
2023/09/08 03:32:34;;;;;;;11.18;5.88;;;11.90;99.90;;;;;;5114460;28;20019;-62
2023/09/08 03:35:00;;;;;;;8.90;6.20;;;12.00;99.90;;;;;;5114615;28;20157;-62
2023/09/08 03:37:28;;;;;;;11.63;6.68;;;12.00;99.90;;;;;;5114780;28;20020;-62
2023/09/08 03:39:54;;;;;;;10.20;6.03;;;11.90;99.90;;;;;;5114709;28;20102;-62
2023/09/08 03:42:19;;;;;;;10.65;6.78;;;11.90;99.90;;;;;;5114520;28;20452;-62
2023/09/08 03:44:45;;;;;;;12.07;6.38;;;11.90;99.90;;;;;;5096324;28;20015;-61
2023/09/08 03:47:11;;;;;;;9.85;6.53;;;11.90;99.90;;;;;;5114493;28;20023;-62
2023/09/08 03:49:36;;;;;;;10.73;6.55;;;11.80;99.90;;;;;;5114516;28;20098;-62
2023/09/08 03:52:02;;;;;;;10.80;7.20;;;11.80;99.90;;;;;;5095998;28;20411;-62
2023/09/08 03:54:28;;;;;;;12.02;6.63;;;11.80;99.90;;;;;;5114321;28;20077;-62
2023/09/08 03:56:53;;;;;;;9.77;6.80;;;11.80;99.90;;;;;;5114439;28;20447;-63
2023/09/08 03:59:19;;;;;;;11.07;7.53;;;11.80;99.90;;;;;;5114270;28;20066;-62
2023/09/08 04:01:44;;;;;;;13.82;7.40;;;11.80;99.90;;;;;;5113916;28;20076;-62
2023/09/08 04:04:10;;;;;;;10.88;6.28;;;11.80;99.90;;;;;;5114225;28;20097;-62
2023/09/08 04:06:36;;;;;;;9.07;6.80;;;11.80;99.90;;;;;;5096055;28;20111;-62
2023/09/08 04:09:01;;;;;;;10.23;7.38;;;11.80;99.90;;;;;;5114275;28;20020;-62
2023/09/08 04:11:27;;;;;;;8.85;7.07;;;11.80;99.90;;;;;;5095615;28;20023;-61
2023/09/08 04:13:52;;;;;;;8.57;6.03;;;11.80;99.90;;;;;;5114455;28;20024;-62
2023/09/08 04:16:18;;;;;;;9.82;6.70;;;11.70;99.90;;;;;;5114126;28;20400;-62
2023/09/08 04:18:44;;;;;;;8.75;6.28;;;11.70;99.90;;;;;;5114490;28;20016;-62
2023/09/08 04:21:10;;;;;;;9.48;7.40;;;11.70;99.90;;;;;;5105086;28;20027;-64
2023/09/08 04:23:36;;;;;;;11.13;7.03;;;11.70;99.90;;;;;;5124764;28;20032;-64
2023/09/08 04:26:01;;;;;;;14.98;6.88;;;11.70;99.90;;;;;;5124536;28;20400;-61
2023/09/08 04:28:27;;;;;;;11.15;7.35;;;11.70;99.90;;;;;;5123286;28;20030;-62
2023/09/08 04:30:53;;;;;;;9.25;6.45;;;11.70;99.90;;;;;;5121277;28;20077;-61
2023/09/08 04:33:18;;;;;;;10.23;6.97;;;11.70;99.90;;;;;;5118266;28;20102;-61
2023/09/08 04:35:44;;;;;;;17.63;7.90;;;11.70;99.90;;;;;;5117988;28;20072;-61
2023/09/08 04:38:09;;;;;;;13.00;7.35;;;11.70;99.90;;;;;;5099649;28;20106;-61
2023/09/08 04:40:35;;;;;;;10.13;7.00;;;11.80;99.90;;;;;;5099554;28;20453;-61
2023/09/08 04:43:01;;;;;;;13.30;6.85;;;11.80;99.90;;;;;;5099497;28;20030;-62
2023/09/08 04:45:26;;;;;;;12.70;7.15;;;11.80;99.90;;;;;;5099815;28;20024;-61
2023/09/08 04:47:52;;;;;;;11.27;7.20;;;11.80;99.90;;;;;;5117478;28;20020;-62
2023/09/08 04:50:18;;;;;;;10.57;7.38;;;11.80;99.90;;;;;;5118188;28;20027;-62
2023/09/08 04:52:43;;;;;;;10.52;7.03;;;11.80;99.90;;;;;;5117982;28;20036;-62
2023/09/08 04:55:10;;;;;;;15.00;7.97;;;11.80;99.90;;;;;;5117299;28;20380;-65
2023/09/08 04:57:36;;;;;;;13.00;7.57;;;11.80;99.90;;;;;;5099578;28;20342;-65
2023/09/08 05:00:03;;;;;;;9.27;7.15;;;11.90;99.90;;;;;;5117367;28;20077;-66
2023/09/08 05:02:28;;;;;;;13.65;7.85;;;12.00;99.90;;;;;;5099292;28;20085;-65
2023/09/08 05:04:54;;;;;;;11.65;7.53;;;12.00;99.90;;;;;;5117479;28;20019;-65
2023/09/08 05:07:20;;;;;;;18.23;7.32;;;12.10;99.90;;;;;;5117203;28;20024;-65
2023/09/08 05:09:45;;;;;;;12.60;7.38;;;12.10;99.90;;;;;;5117136;28;20027;-65
2023/09/08 05:12:11;;;;;;;15.02;8.73;;;12.20;99.90;;;;;;5117523;28;20031;-65
2023/09/08 05:14:37;;;;;;;11.90;7.53;;;12.20;99.90;;;;;;5117490;28;20102;-65
2023/09/08 05:17:03;;;;;;;12.65;7.43;;;12.30;99.90;;;;;;5116957;28;20016;-65
2023/09/08 05:19:28;;;;;;;12.15;8.05;;;12.40;99.90;;;;;;5098706;28;20020;-65
2023/09/08 05:21:55;;;;;;;11.52;7.63;;;12.60;99.90;;;;;;5098257;28;20027;-65
2023/09/08 05:24:20;;;;;;;11.75;7.60;;;12.70;99.90;;;;;;5116855;28;20023;-61
2023/09/08 05:26:47;;;;;;;16.48;7.97;;;12.90;99.90;;;;;;5098526;28;20020;-61
2023/09/08 05:29:13;;;;;;;9.27;6.80;;;13.00;99.90;;;;;;5116574;28;20027;-61
2023/09/08 05:31:38;;;;;;;8.32;6.75;;;13.30;99.90;;;;;;5098297;28;20032;-61
2023/09/08 05:34:04;;;;;;;10.32;6.90;;;13.50;99.90;;;;;;5116564;28;20019;-61
2023/09/08 05:36:30;;;;;;;15.00;7.05;;;13.70;99.90;;;;;;5116622;28;20016;-61
2023/09/08 05:38:56;;;;;;;13.63;7.80;;;14.00;99.90;;;;;;5116688;28;20023;-61
2023/09/08 05:41:22;;;;;;;15.00;7.93;;;14.20;99.90;;;;;;5098551;28;20027;-61
2023/09/08 05:43:48;;;;;;;12.60;7.60;;;14.50;99.90;;;;;;5098805;28;20034;-62
2023/09/08 05:46:13;;;;;;;13.43;7.00;;;14.80;99.90;;;;;;5116319;28;20028;-62
2023/09/08 05:48:39;;;;;;;12.65;6.90;;;15.00;99.90;;;;;;5098113;28;20016;-61
2023/09/08 05:51:06;;;;;;;16.48;7.35;;;15.30;99.90;;;;;;5097920;28;20047;-62
2023/09/08 05:53:32;;;;;;;18.30;7.82;;;15.60;99.90;;;;;;5098703;28;20447;-62
2023/09/08 05:55:58;;;;;;;15.75;7.35;;;15.90;99.90;;;;;;5098014;28;20051;-61
2023/09/08 05:58:27;;;;;;;19.67;7.55;;;16.20;99.90;;;;;;5115905;28;20051;-61
2023/09/08 06:00:55;;;;;;;14.57;6.50;;;16.50;99.90;;;;;;5116393;28;20020;-61
2023/09/08 06:03:21;;;;;;;13.60;7.60;;;16.90;99.90;;;;;;5097987;28;20060;-61
2023/09/08 06:05:47;;;;;;;13.38;6.95;;;17.20;99.90;;;;;;5115713;28;20031;-62
2023/09/08 06:08:13;;;;;;;11.75;6.93;;;17.50;99.90;;;;;;5097848;28;20027;-62
2023/09/08 06:10:39;;;;;;;17.30;7.55;;;17.80;99.90;;;;;;5116104;28;20027;-62
2023/09/08 06:13:04;;;;;;;11.93;6.35;;;18.20;99.90;;;;;;5115687;28;20015;-62
2023/09/08 06:15:30;;;;;;;13.05;6.47;;;18.70;99.90;;;;;;5115940;28;20468;-62
2023/09/08 06:17:56;;;;;;;16.23;6.45;;;19.00;99.90;;;;;;5097729;28;20031;-62
2023/09/08 06:20:21;;;;;;;11.35;6.78;;;19.30;99.90;;;;;;5115857;28;20028;-62
2023/09/08 06:22:47;;;;;;;14.32;7.10;;;19.80;99.90;;;;;;5115856;28;20043;-62
2023/09/08 06:25:13;;;;;;;13.13;6.50;;;20.00;99.90;;;;;;5115554;28;20020;-62
2023/09/08 06:27:39;;;;;;;12.18;6.65;;;20.40;99.90;;;;;;5097855;28;20027;-62
2023/09/08 06:30:05;;;;;;;17.35;6.78;;;20.70;99.90;;;;;;5115878;28;20015;-62
2023/09/08 06:32:31;;;;;;;12.13;6.38;;;21.10;99.90;;;;;;5115395;28;20023;-62
2023/09/08 06:34:56;;;;;;;18.13;6.63;;;21.40;99.90;;;;;;5115393;28;20107;-62
2023/09/08 06:37:22;;;;;;;12.93;7.10;;;21.70;99.90;;;;;;5097291;28;20020;-63
2023/09/08 06:39:48;;;;;;;14.00;5.75;;;21.90;99.90;;;;;;5097343;28;20028;-62
2023/09/08 06:42:13;;;;;;;10.10;6.00;;;22.20;99.90;;;;;;5114870;28;20464;-62
2023/09/08 06:44:39;;;;;;;8.48;5.88;;;22.40;99.90;;;;;;5115270;28;20457;-62
2023/09/08 06:47:06;;;;;;;10.30;5.70;;;22.70;99.00;;;;;;5115284;28;20023;-62
2023/09/08 06:49:32;;;;;;;6.97;5.13;;;22.90;97.90;;;;;;5115266;28;20032;-60
2023/09/08 06:51:58;;;;;;;10.43;5.35;;;23.10;97.50;;;;;;5096682;28;20051;-62
2023/09/08 06:54:24;;;;;;;11.85;4.97;;;23.30;96.30;;;;;;5115141;28;20028;-68
2023/09/08 06:56:49;;;;;;;10.38;6.10;;;23.60;95.30;;;;;;5096881;28;20019;-66
2023/09/08 06:59:15;;;;;;;9.63;5.55;;;24.00;94.40;;;;;;5096836;28;20407;-68
2023/09/08 07:01:40;;;;;;;9.57;5.38;;;24.10;93.70;;;;;;5115195;28;20063;-67
2023/09/08 07:04:06;;;;;;;7.10;5.53;;;24.10;93.00;;;;;;5114803;28;20020;-69
2023/09/08 07:06:32;;;;;;;10.45;5.20;;;24.10;92.60;;;;;;5115179;28;20024;-68
2023/09/08 07:08:57;;;;;;;10.30;5.05;;;24.00;92.30;;;;;;5096765;28;20034;-68
2023/09/08 07:11:23;;;;;;;10.00;5.60;;;24.20;91.90;;;;;;5115084;28;20027;-66
2023/09/08 07:13:49;;;;;;;11.85;5.38;;;24.50;91.10;;;;;;5096718;28;20467;-66
2023/09/08 07:16:14;;;;;;;9.80;5.07;;;24.60;90.40;;;;;;5096554;28;20020;-66
2023/09/08 07:18:40;;;;;;;11.73;5.35;;;25.00;89.90;;;;;;5114855;28;20020;-66
2023/09/08 07:21:06;;;;;;;12.25;5.28;;;25.10;88.40;;;;;;5096408;28;20093;-66
2023/09/08 07:23:31;;;;;;;11.73;5.40;;;25.00;87.00;;;;;;5114688;28;20019;-66
2023/09/08 07:25:57;;;;;;;6.00;4.75;;;25.10;86.90;;;;;;5114561;28;20437;-66
2023/09/08 07:28:23;;;;;;;7.50;4.82;;;25.10;86.80;;;;;;5114097;28;20441;-67
2023/09/08 07:30:48;;;;;;;7.45;4.68;;;25.50;85.70;;;;;;5114330;28;20039;-67
2023/09/08 07:33:14;;;;;;;6.88;4.70;;;25.60;85.00;;;;;;5114386;28;20072;-68
2023/09/08 07:35:40;;;;;;;10.43;4.43;;;25.90;83.80;;;;;;5096421;28;20085;-67
2023/09/08 07:38:07;;;;;;;7.03;4.82;;;26.10;82.40;;;;;;5114635;28;20041;-66
2023/09/08 07:40:33;;;;;;;13.30;5.35;;;26.40;80.30;;;;;;5114050;28;20024;-68
2023/09/08 07:42:59;;;;;;;5.32;4.63;;;26.50;80.00;;;;;;5096830;28;20364;-68
2023/09/08 07:45:25;;;;;;;11.70;4.70;;;26.80;78.70;;;;;;5114706;28;20027;-68
2023/09/08 07:47:51;;;;;;;5.97;4.97;;;26.80;77.60;;;;;;5096314;28;20118;-68
2023/09/08 07:50:20;;;;;;;10.32;4.68;;;26.90;76.20;;;;;;5114431;28;20433;-68
2023/09/08 07:52:47;;;;;;;12.65;4.80;;;27.10;76.10;;;;;;5095829;28;20051;-68
2023/09/08 07:55:13;;;;;;;8.05;4.32;;;27.20;75.60;;;;;;5113484;28;20024;-69
2023/09/08 07:57:38;;;;;;;7.18;4.63;;;27.30;74.40;;;;;;5114423;28;20027;-67
2023/09/08 08:00:05;;;;;;;7.00;4.57;;;27.60;73.50;;;;;;5096052;28;20489;-66
2023/09/08 08:02:31;;;;;;;13.60;4.78;;;28.10;72.50;;;;;;5096400;28;20035;-66
2023/09/08 08:04:57;;;;;;;9.65;4.55;;;28.20;71.40;;;;;;5114168;28;20023;-66
2023/09/08 08:07:22;;;;;;;9.77;4.15;;;28.10;70.20;;;;;;5113932;28;20024;-67
2023/09/08 08:09:48;;;;;;;7.78;4.60;;;28.20;70.10;;;;;;5095627;28;20024;-67
2023/09/08 08:12:14;;;;;;;10.55;4.93;;;28.50;69.30;;;;;;5095783;28;20030;-67
2023/09/08 08:14:39;;;;;;;6.20;4.25;;;28.70;68.10;;;;;;5113931;28;20102;-67
2023/09/08 08:17:05;;;;;;;8.13;4.15;;;28.70;66.40;;;;;;5114217;28;20068;-67
2023/09/08 08:19:31;;;;;;;5.97;4.60;;;28.70;67.30;;;;;;5113955;28;20050;-67
2023/09/08 08:21:57;;;;;;;5.35;4.50;;;28.90;66.90;;;;;;5114297;28;20030;-67
2023/09/08 08:24:23;;;;;;;6.25;4.50;;;29.30;66.00;;;;;;5095937;28;20111;-67
2023/09/08 08:26:51;;;;;;;9.48;4.50;;;29.10;64.40;;;;;;5114339;28;20031;-66
2023/09/08 08:29:17;;;;;;;;;;;29.00;63.40;;;;;;5114332;28;20020;-66
2023/09/08 08:31:42;;;;;;;5.95;4.53;;;28.50;64.00;;;;;;5114151;28;20297;-66
2023/09/08 08:34:09;;;;;;;9.05;4.47;;;28.70;65.20;;;;;;5114150;28;20427;-66
2023/09/08 08:36:35;;;;;;;10.77;4.43;;;29.30;64.90;;;;;;5114264;28;20023;-66
2023/09/08 08:39:00;;;;;;;8.35;4.47;;;29.80;62.60;;;;;;5113697;28;20376;-67
2023/09/08 08:41:26;;;;;;;5.97;3.72;;;30.00;61.70;;;;;;5095671;28;20031;-68
2023/09/08 08:43:53;;;;;;;8.60;4.10;;;30.10;61.00;;;;;;5096058;28;20476;-67
2023/09/08 08:46:21;;;;;;;8.25;4.13;;;30.50;60.10;;;;;;5114099;28;20098;-69
2023/09/08 08:48:51;;;;;;;8.10;4.38;;;30.40;59.30;;;;;;5114348;28;20093;-66
2023/09/08 08:51:19;;;;;;;5.05;4.22;;;30.50;58.70;;;;;;5095218;28;20043;-67
2023/09/08 08:53:44;;;;;;;5.72;4.18;;;30.10;59.00;;;;;;5114165;28;20024;-69
2023/09/08 08:56:10;;;;;;;6.22;4.10;;;30.00;59.70;;;;;;5114533;28;20023;-69
2023/09/08 08:58:38;;;;;;;7.00;3.70;;;30.70;59.00;;;;;;5121500;28;20019;-70
2023/09/08 09:01:04;;;;;;;;;;;31.70;57.80;;;;;;5118881;28;20476;-69
2023/09/08 09:03:34;;;;;;;4.80;4.30;;;31.60;55.90;;;;;;5101827;28;19911;-69
2023/09/08 09:06:00;;;;;;;4.75;3.60;;;31.20;56.60;;;;;;5123640;28;20015;-70
2023/09/08 09:08:27;;;;;;;5.50;3.95;;;31.50;56.50;;;;;;5105292;28;20031;-70
2023/09/08 09:10:53;;;;;;;7.88;4.13;;;32.10;55.60;;;;;;5103782;28;20024;-69
2023/09/08 09:13:19;;;;;;;11.73;5.60;;;32.10;53.90;;;;;;5121067;28;20019;-70
2023/09/08 09:15:46;;;;;;;7.38;3.75;;;31.70;54.80;;;;;;5100317;28;20111;-70
2023/09/08 09:18:12;;;;;;;3.85;3.53;;;31.90;53.50;;;;;;5117632;28;20019;-70
2023/09/08 09:20:38;;;;;;;4.40;3.92;;;31.90;54.10;;;;;;5116989;28;20035;-70
2023/09/08 09:23:03;;;;;;;5.53;3.58;;;31.40;53.50;;;;;;5099484;28;20024;-70
2023/09/08 09:25:30;;;;;;;4.40;4.00;;;31.40;54.00;;;;;;5098562;28;20077;-70
2023/09/08 09:27:58;;;;;;;6.20;3.72;;;31.70;54.00;;;;;;5098569;28;20503;-69
2023/09/08 09:30:25;;;;;;;5.97;3.83;;;32.20;53.40;;;;;;5117268;28;20019;-70
2023/09/08 09:33:01;;;;;;;7.53;3.33;;;32.10;51.50;;;;;;5098639;28;20410;-70
2023/09/08 09:35:40;;;;;;;5.45;3.95;;;32.10;52.40;;;;;;5116974;28;20019;-70
2023/09/08 09:38:08;;;;;;;5.35;3.80;;;32.10;51.00;;;;;;5116790;28;20018;-70
2023/09/08 09:40:33;;;;;;;4.68;3.60;;;32.00;52.30;;;;;;5116629;28;20047;-70
2023/09/08 09:42:59;;;;;;;8.38;3.70;;;32.50;50.70;;;;;;5117016;28;20453;-70
2023/09/08 09:45:28;;;;;;;8.23;4.15;;;32.70;51.30;;;;;;5116381;28;20493;-71
2023/09/08 09:47:55;;;;;;;5.22;4.72;;;33.30;50.20;;;;;;5098288;28;20020;-70
2023/09/08 09:50:34;;;;;;;6.82;3.72;;;33.60;48.90;;;;;;5116212;28;20012;-71
2023/09/08 09:53:08;;;;;;;4.38;3.50;;;32.70;49.20;;;;;;5116617;28;20032;-71
2023/09/08 09:55:36;;;;;;;3.92;3.35;;;32.60;49.40;;;;;;5098815;28;20031;-71
2023/09/08 09:58:03;;;;;;;4.33;3.70;;;32.30;50.00;;;;;;5116199;28;20015;-70
2023/09/08 10:00:30;;;;;;;3.63;2.90;;;32.90;49.50;;;;;;5116510;28;20445;-70
2023/09/08 10:02:56;;;;;;;7.65;3.20;;;33.20;47.40;;;;;;5097988;28;20089;-71
2023/09/08 10:05:25;;;;;;;4.30;3.03;;;33.70;45.20;;;;;;5115889;28;20019;-71
2023/09/08 10:07:52;;;;;;;7.90;3.10;;;33.60;44.60;;;;;;5116568;28;20031;-71
2023/09/08 10:10:19;;;;;;;5.35;3.13;;;33.70;44.90;;;;;;5116194;28;20043;-72
2023/09/08 10:12:49;;;;;;;5.20;3.38;;;33.70;43.90;;;;;;5098187;28;20110;-71
2023/09/08 10:15:20;;;;;;;5.47;3.25;;;34.20;42.30;;;;;;5115721;28;20012;-72
2023/09/08 10:17:52;;;;;;;3.83;3.08;;;33.50;43.00;;;;;;5115143;28;20027;-70
2023/09/08 10:20:21;;;;;;;3.50;2.90;;;32.80;43.60;;;;;;5116692;28;20031;-70
2023/09/08 10:22:56;;;;;;;3.80;2.92;;;32.90;43.30;;;;;;5097278;28;20031;-71
2023/09/08 10:25:26;;;;;;;6.45;3.58;;;33.90;43.30;;;;;;5117269;28;20091;-71
2023/09/08 10:27:54;;;;;;;9.93;3.00;;;34.70;42.70;;;;;;5098285;28;20057;-70
2023/09/08 10:30:21;;;;;;;4.30;2.67;;;35.10;41.20;;;;;;5116380;28;20015;-70
2023/09/08 10:32:49;;;;;;;6.32;3.00;;;35.20;42.10;;;;;;5117077;28;20031;-73
2023/09/08 10:35:17;;;;;;;;;;;35.70;40.80;;;;;;5123500;28;20023;-65
2023/09/08 10:37:43;;;;;;;7.13;3.40;;;34.30;39.80;;;;;;5104147;28;19944;-65
2023/09/08 10:40:27;;;;;;;6.07;2.80;;;34.50;40.50;;;;;;5121244;28;20091;-65
2023/09/08 10:43:14;;;;;;;6.18;2.80;;;33.90;40.30;;;;;;5121530;28;20342;-64
2023/09/08 10:45:44;;;;;;;3.88;3.45;;;33.30;41.50;;;;;;5103488;28;20110;-65
2023/09/08 10:48:10;;;;;;;3.63;3.28;;;33.60;42.00;;;;;;5103122;28;20088;-65
2023/09/08 10:50:41;;;;;;;3.33;3.03;;;33.80;41.60;;;;;;5120949;28;20015;-65
2023/09/08 10:53:17;;;;;;;6.55;3.03;;;34.30;40.40;;;;;;5121995;28;20020;-65
2023/09/08 10:55:52;;;;;;;5.05;2.88;;;34.50;40.40;;;;;;5121735;28;20094;-65
2023/09/08 10:58:28;;;;;;;6.05;3.00;;;34.60;40.40;;;;;;5102799;28;20065;-65
2023/09/08 11:01:00;;;;;;;3.25;2.95;;;34.80;40.20;;;;;;5121464;28;20507;-65
2023/09/08 11:03:49;;;;;;;3.38;2.58;;;34.20;40.70;;;;;;5120225;28;20453;-64
2023/09/08 11:06:22;;;;;;;3.17;2.78;;;33.40;41.30;;;;;;5099826;28;20036;-65
2023/09/08 11:08:49;;;;;;;5.05;3.10;;;33.50;40.90;;;;;;5115643;28;20054;-64
2023/09/08 11:11:15;;;;;;;3.08;2.88;;;33.20;41.70;;;;;;5116968;28;20054;-65
2023/09/08 11:13:45;;;;;;;3.50;3.08;;;33.50;41.80;;;;;;5125082;28;20071;-65
2023/09/08 11:16:11;;;;;;;4.72;2.83;;;33.80;41.80;;;;;;5110923;28;20027;-65
2023/09/08 11:18:37;;;;;;;6.72;3.00;;;34.40;40.70;;;;;;5127759;28;20027;-65
2023/09/08 11:21:07;;;;;;;3.47;3.08;;;34.40;39.50;;;;;;5107286;28;20043;-65
2023/09/08 11:23:32;;;;;;;8.35;3.15;;;33.90;40.10;;;;;;5126101;28;20023;-65
2023/09/08 11:25:59;;;;;;;3.00;2.80;;;34.10;40.70;;;;;;5127325;28;20019;-65
2023/09/08 11:28:27;;;;;;;6.80;3.00;;;34.40;39.70;;;;;;5108259;28;20529;-65
2023/09/08 11:30:54;;;;;;;9.00;3.43;;;34.70;39.80;;;;;;5107006;28;20027;-65
2023/09/08 11:33:24;;;;;;;2.90;2.70;;;35.10;39.60;;;;;;5123986;28;20016;-65
2023/09/08 11:35:54;;;;;;;2.75;2.47;;;34.90;39.70;;;;;;5123094;28;20024;-65
2023/09/08 11:38:26;;;;;;;4.32;3.08;;;35.50;39.10;;;;;;5118575;28;20084;-66
2023/09/08 11:40:52;;;;;;;5.95;3.15;;;35.70;38.40;;;;;;5098139;28;20023;-65
2023/09/08 11:43:19;;;;;;;7.22;3.15;;;35.40;37.90;;;;;;5115942;28;20020;-65
2023/09/08 11:45:44;;;;;;;2.85;2.65;;;35.10;38.40;;;;;;5097551;28;20023;-65
2023/09/08 11:48:10;;;;;;;3.33;2.78;;;34.50;38.40;;;;;;5116238;28;20107;-65
2023/09/08 11:50:36;;;;;;;5.70;2.63;;;34.80;39.10;;;;;;5096706;28;20035;-65
2023/09/08 11:53:02;;;;;;;3.55;2.63;;;34.90;38.80;;;;;;5115522;28;20024;-65
2023/09/08 11:55:28;;;;;;;7.22;3.00;;;35.80;38.30;;;;;;5096515;28;20080;-65
2023/09/08 11:57:57;;;;;;;3.05;2.72;;;35.00;38.20;;;;;;5096823;28;20020;-65
2023/09/08 12:00:25;;;;;;;12.25;2.75;;;35.20;38.60;;;;;;5097521;28;20020;-65
2023/09/08 12:02:51;;;;;;;3.97;2.80;;;35.20;37.40;;;;;;5115816;28;20043;-65
2023/09/08 12:05:27;;;;;;;7.47;2.72;;;34.90;37.90;;;;;;5115942;28;20353;-65
2023/09/08 12:07:56;;;;;;;5.25;3.33;;;34.70;37.80;;;;;;5115235;28;20058;-65
2023/09/08 12:10:22;;;;;;;7.45;2.63;;;35.60;37.80;;;;;;5096599;28;20035;-65
2023/09/08 12:12:54;;;;;;;4.30;2.60;;;35.00;37.60;;;;;;5115100;28;20530;-65
2023/09/08 12:15:34;;;;;;;5.93;2.50;;;35.30;37.90;;;;;;5115452;28;20420;-65
2023/09/08 12:18:01;;;;;;;5.95;2.67;;;35.90;36.80;;;;;;5096862;28;20046;-66
2023/09/08 12:20:28;;;;;;;4.17;2.77;;;35.70;35.10;;;;;;5115312;28;20020;-66
2023/09/08 12:22:53;;;;;;;5.40;2.80;;;35.10;38.60;;;;;;5114246;28;20602;-66
2023/09/08 12:25:19;;;;;;;4.80;2.95;;;34.50;39.80;;;;;;5114062;28;20020;-66
2023/09/08 12:27:49;;;;;;;3.20;2.60;;;34.20;38.70;;;;;;5116573;28;20061;-64
2023/09/08 12:30:19;;;;;;;4.95;2.90;;;34.50;38.00;;;;;;5118135;28;20019;-65
2023/09/08 12:32:50;;;;;;;5.22;2.67;;;33.80;38.10;;;;;;5119001;28;20068;-63
2023/09/08 12:35:25;;;;;;;10.00;3.08;;;34.80;38.10;;;;;;5122360;28;20026;-63
2023/09/08 12:38:00;;;;;;;3.85;3.10;;;35.20;37.20;;;;;;5118549;28;20051;-63
2023/09/08 12:40:27;;;;;;;4.82;2.40;;;36.10;37.20;;;;;;5118714;28;20125;-63
2023/09/08 12:42:53;;;;;;;4.72;3.28;;;37.10;36.40;;;;;;5119931;28;20049;-63